createdAt,value
2023-04-12T00:00:12.105Z,22.80
2023-04-12T00:02:42.751Z,28.43
2023-04-12T00:05:11.704Z,24.17
2023-04-12T00:07:40.069Z,24.53
2023-04-12T00:10:09.578Z,24.80
2023-04-12T00:12:37.705Z,33.43
2023-04-12T00:15:07.942Z,23.27
2023-04-12T00:17:38.437Z,30.10
2023-04-12T00:20:12.294Z,23.00
2023-04-12T00:22:41.874Z,23.97
2023-04-12T00:25:10.429Z,27.23
2023-04-12T00:27:39.235Z,26.60
2023-04-12T00:30:08.849Z,24.43
2023-04-12T00:32:38.696Z,22.07
2023-04-12T00:35:07.758Z,25.63
2023-04-12T00:37:39.067Z,20.27
2023-04-12T00:40:10.366Z,29.23
2023-04-12T00:42:39.065Z,22.47
2023-04-12T00:45:08.792Z,24.10
2023-04-12T00:47:40.476Z,20.40
2023-04-12T00:50:11.029Z,26.53
2023-04-12T00:52:40.061Z,28.43
2023-04-12T00:55:10.936Z,21.63
2023-04-12T00:57:41.532Z,22.90
2023-04-12T01:00:13.922Z,27.23
2023-04-12T01:02:47.512Z,28.37
2023-04-12T01:05:22.256Z,20.97
2023-04-12T01:07:57.372Z,21.10
2023-04-12T01:10:36.084Z,27.27
2023-04-12T01:13:15.409Z,26.33
2023-04-12T01:15:52.554Z,19.93
2023-04-12T01:18:28.107Z,23.40
2023-04-12T01:21:04.995Z,20.50
2023-04-12T01:23:49.792Z,24.53
2023-04-12T01:26:33.442Z,31.07
2023-04-12T01:29:05.969Z,31.77
2023-04-12T01:31:37.394Z,24.10
2023-04-12T01:34:07.341Z,25.10
2023-04-12T01:36:37.883Z,24.67
2023-04-12T01:39:07.495Z,28.20
2023-04-12T01:41:41.953Z,25.97
2023-04-12T01:44:14.928Z,29.83
2023-04-12T01:46:44.572Z,27.57
2023-04-12T01:49:14.029Z,26.17
2023-04-12T01:51:51.378Z,27.67
2023-04-12T01:54:23.508Z,22.13
2023-04-12T01:56:58.064Z,33.90
2023-04-12T01:59:33.299Z,24.57
2023-04-12T02:02:03.933Z,25.87
2023-04-12T02:04:32.765Z,41.63
2023-04-12T02:07:01.244Z,35.60
2023-04-12T02:09:29.956Z,40.20
2023-04-12T02:11:58.368Z,25.40
2023-04-12T02:14:27.974Z,38.50
2023-04-12T02:16:58.515Z,30.13
2023-04-12T02:19:27.087Z,26.73
2023-04-12T02:21:55.288Z,31.40
2023-04-12T02:24:24.131Z,34.00
2023-04-12T02:26:52.255Z,30.40
2023-04-12T02:29:20.397Z,30.77
2023-04-12T02:31:51.703Z,25.63
2023-04-12T02:34:21.462Z,26.07
2023-04-12T02:36:49.818Z,30.73
2023-04-12T02:39:19.561Z,33.53
2023-04-12T02:41:47.826Z,26.67
2023-04-12T02:44:16.118Z,28.40
2023-04-12T02:46:44.383Z,35.47
2023-04-12T02:49:13.885Z,36.37
2023-04-12T02:51:42.473Z,30.17
2023-04-12T02:54:11.148Z,37.07
2023-04-12T02:56:39.419Z,34.00
2023-04-12T02:59:07.950Z,36.07
2023-04-12T03:01:39.661Z,31.53
2023-04-12T03:04:08.128Z,29.70
2023-04-12T03:06:38.159Z,35.30
2023-04-12T03:09:06.821Z,30.97
2023-04-12T03:11:35.640Z,35.27
2023-04-12T03:14:03.912Z,26.90
2023-04-12T03:16:32.622Z,35.17
2023-04-12T03:19:01.235Z,29.03
2023-04-12T03:21:29.996Z,35.07
2023-04-12T03:23:59.719Z,31.73
2023-04-12T03:26:28.459Z,31.40
2023-04-12T03:29:02.161Z,28.63
2023-04-12T03:31:31.394Z,33.87
2023-04-12T03:33:59.850Z,27.53
2023-04-12T03:36:29.904Z,37.87
2023-04-12T03:38:59.882Z,40.37
2023-04-12T03:41:29.569Z,36.43
2023-04-12T03:43:58.470Z,36.60
2023-04-12T03:46:27.507Z,41.37
2023-04-12T03:48:56.021Z,31.97
2023-04-12T03:51:27.238Z,33.07
2023-04-12T03:53:56.202Z,33.27
2023-04-12T03:56:25.921Z,36.43
2023-04-12T03:58:54.932Z,33.77
2023-04-12T04:01:23.751Z,29.67
2023-04-12T04:03:52.618Z,39.30
2023-04-12T04:06:22.079Z,36.40
2023-04-12T04:08:50.747Z,38.87
2023-04-12T04:11:19.044Z,40.83
2023-04-12T04:13:49.355Z,37.10
2023-04-12T04:16:18.245Z,35.60
2023-04-12T04:18:46.436Z,34.03
2023-04-12T04:21:15.718Z,41.03
2023-04-12T04:23:48.105Z,40.27
2023-04-12T04:26:17.433Z,44.93
2023-04-12T04:28:46.341Z,43.10
2023-04-12T04:31:17.726Z,34.87
2023-04-12T04:33:46.627Z,51.63
2023-04-12T04:36:15.968Z,37.43
2023-04-12T04:38:44.191Z,48.27
2023-04-12T04:41:12.910Z,41.33
2023-04-12T04:43:42.703Z,36.70
2023-04-12T04:46:10.927Z,39.23
2023-04-12T04:48:41.440Z,37.80
2023-04-12T04:51:09.624Z,47.73
2023-04-12T04:53:38.439Z,43.00
2023-04-12T04:56:07.935Z,45.17
2023-04-12T04:58:36.182Z,41.80
2023-04-12T05:01:05.282Z,41.80
2023-04-12T05:03:34.462Z,41.00
2023-04-12T05:06:04.728Z,33.30
2023-04-12T05:08:32.855Z,32.73
2023-04-12T05:11:01.456Z,32.63
2023-04-12T05:13:29.833Z,37.03
2023-04-12T05:15:58.035Z,36.80
2023-04-12T05:18:26.889Z,34.87
2023-04-12T05:20:55.132Z,32.53
2023-04-12T05:23:24.692Z,30.07
2023-04-12T05:25:53.901Z,30.70
2023-04-12T05:28:22.132Z,34.70
2023-04-12T05:30:50.253Z,30.77
2023-04-12T05:33:19.017Z,28.73
2023-04-12T05:35:47.219Z,25.03
2023-04-12T05:38:16.043Z,31.10
2023-04-12T05:40:46.093Z,31.03
2023-04-12T05:43:14.556Z,33.47
2023-04-12T05:45:43.219Z,24.50
2023-04-12T05:48:11.561Z,28.17
2023-04-12T05:50:39.901Z,28.13
2023-04-12T05:53:08.649Z,26.33
2023-04-12T05:55:38.335Z,25.90
2023-04-12T05:58:07.984Z,30.00
2023-04-12T06:00:37.178Z,23.90
2023-04-12T06:03:05.636Z,44.90
2023-04-12T06:05:35.679Z,32.17
2023-04-12T06:08:05.405Z,36.70
2023-04-12T06:10:34.020Z,27.43
2023-04-12T06:13:02.253Z,34.90
2023-04-12T06:15:32.214Z,23.23
2023-04-12T06:18:00.895Z,21.70
2023-04-12T06:20:29.267Z,32.00
2023-04-12T06:22:58.010Z,20.53
2023-04-12T06:25:27.136Z,21.37
2023-04-12T06:27:55.348Z,21.13
2023-04-12T06:30:23.525Z,22.37
2023-04-12T06:32:53.438Z,31.23
2023-04-12T06:35:21.743Z,23.67
2023-04-12T06:37:49.944Z,21.00
2023-04-12T06:40:18.525Z,24.70
2023-04-12T06:42:46.701Z,21.93
2023-04-12T06:45:14.928Z,20.03
2023-04-12T06:47:43.510Z,23.17
2023-04-12T06:50:13.315Z,20.80
2023-04-12T06:52:41.586Z,16.27
2023-04-12T06:55:10.734Z,21.90
2023-04-12T06:57:39.028Z,22.23
2023-04-12T07:00:08.570Z,20.10
2023-04-12T07:02:38.992Z,19.60
2023-04-12T07:05:07.885Z,25.93
2023-04-12T07:07:37.502Z,18.47
2023-04-12T07:10:07.029Z,17.27
2023-04-12T07:12:35.654Z,15.53
2023-04-12T07:15:03.815Z,14.87
2023-04-12T07:17:32.699Z,13.90
2023-04-12T07:20:01.132Z,22.67
2023-04-12T07:22:29.332Z,14.43
2023-04-12T07:24:59.141Z,21.57
2023-04-12T07:27:27.305Z,17.47
2023-04-12T07:29:55.564Z,11.87
2023-04-12T07:32:24.822Z,23.90
2023-04-12T07:34:53.637Z,15.53
2023-04-12T07:37:21.865Z,14.17
2023-04-12T07:39:50.369Z,26.13
2023-04-12T07:42:20.168Z,16.67
2023-04-12T07:44:48.370Z,16.93
2023-04-12T07:47:17.512Z,15.57
2023-04-12T07:49:45.621Z,14.80
2023-04-12T07:52:13.824Z,11.60
2023-04-12T07:54:42.979Z,15.07
2023-04-12T07:57:11.294Z,12.97
2023-04-12T07:59:40.799Z,24.37
2023-04-12T08:02:09.602Z,12.63
2023-04-12T08:04:38.302Z,13.93
2023-04-12T08:07:06.562Z,13.90
2023-04-12T08:09:35.251Z,11.63
2023-04-12T08:12:04.209Z,10.70
2023-04-12T08:14:32.337Z,12.53
2023-04-12T08:17:01.912Z,12.63
2023-04-12T08:19:30.188Z,10.77
2023-04-12T08:21:58.652Z,20.37
2023-04-12T08:24:26.783Z,12.83
2023-04-12T08:26:55.970Z,15.50
2023-04-12T08:29:24.230Z,8.97
2023-04-12T08:31:53.135Z,17.93
2023-04-12T08:34:24.626Z,11.30
2023-04-12T08:36:52.825Z,17.33
2023-04-12T08:39:21.460Z,12.73
2023-04-12T08:41:50.605Z,14.23
2023-04-12T08:44:19.672Z,8.87
2023-04-12T08:46:48.731Z,11.13
2023-04-12T08:49:18.685Z,11.00
2023-04-12T08:51:48.401Z,16.50
2023-04-12T08:54:16.611Z,14.53
2023-04-12T08:56:46.204Z,7.83
2023-04-12T08:59:15.501Z,9.90
2023-04-12T09:01:44.307Z,7.70
2023-04-12T09:04:12.630Z,16.60
2023-04-12T09:06:41.621Z,14.67
2023-04-12T09:09:11.285Z,9.80
2023-04-12T09:11:40.263Z,10.97
2023-04-12T09:14:23.025Z,11.57
2023-04-12T09:16:52.494Z,21.93
2023-04-12T09:19:33.650Z,9.73
2023-04-12T09:22:02.256Z,9.37
2023-04-12T09:24:32.048Z,10.70
2023-04-12T09:27:04.800Z,11.70
2023-04-12T09:29:34.313Z,10.20
2023-04-12T09:32:04.312Z,24.30
2023-04-12T09:34:33.982Z,8.20
2023-04-12T09:37:14.849Z,17.17
2023-04-12T09:39:44.902Z,8.32
2023-04-12T09:42:29.813Z,10.90
2023-04-12T09:45:02.932Z,9.45
2023-04-12T09:47:41.490Z,11.70
2023-04-12T09:50:10.876Z,12.43
2023-04-12T09:52:40.373Z,11.85
2023-04-12T09:55:11.710Z,11.65
2023-04-12T09:57:43.077Z,11.27
2023-04-12T10:00:17.682Z,11.77
2023-04-12T10:02:50.365Z,15.50
2023-04-12T10:05:22.820Z,13.20
2023-04-12T10:07:51.658Z,10.47
2023-04-12T10:10:21.808Z,14.57
2023-04-12T10:12:51.024Z,9.97
2023-04-12T10:15:21.998Z,17.97
2023-04-12T10:17:52.492Z,29.33
2023-04-12T10:20:23.289Z,12.90
2023-04-12T10:22:54.666Z,9.90
2023-04-12T10:25:26.925Z,10.37
2023-04-12T10:27:55.380Z,9.97
2023-04-12T10:30:25.404Z,17.73
2023-04-12T10:33:18.302Z,11.97
2023-04-12T10:35:55.303Z,11.63
2023-04-12T10:38:26.841Z,7.80
2023-04-12T10:41:26.711Z,10.57
2023-04-12T10:44:27.409Z,9.17
2023-04-12T10:46:55.887Z,6.47
2023-04-12T10:49:24.140Z,14.15
2023-04-12T10:52:14.789Z,9.60
2023-04-12T10:54:43.275Z,11.45
2023-04-12T10:57:45.389Z,6.25
2023-04-12T11:00:14.841Z,8.55
2023-04-12T11:03:13.333Z,9.50
2023-04-12T11:06:12.486Z,7.28
2023-04-12T11:08:49.400Z,7.18
2023-04-12T11:11:22.781Z,22.55
2023-04-12T11:13:57.476Z,15.23
2023-04-12T11:16:28.099Z,10.32
2023-04-12T11:18:56.860Z,10.82
2023-04-12T11:21:26.692Z,10.85
2023-04-12T11:23:56.551Z,9.48
2023-04-12T11:26:25.519Z,30.25
2023-04-12T11:28:56.494Z,8.88
2023-04-12T11:31:25.029Z,10.88
2023-04-12T11:33:53.269Z,30.63
2023-04-12T11:36:21.444Z,8.93
2023-04-12T11:38:50.371Z,13.07
2023-04-12T11:41:18.713Z,10.32
2023-04-12T11:43:47.349Z,15.32
2023-04-12T11:46:18.412Z,10.30
2023-04-12T11:48:47.531Z,13.13
2023-04-12T11:51:30.636Z,7.97
2023-04-12T11:54:01.236Z,9.30
2023-04-12T11:56:31.910Z,14.82
2023-04-12T11:59:00.524Z,16.08
2023-04-12T12:01:31.874Z,12.07
2023-04-12T12:04:01.394Z,22.05
2023-04-12T12:06:31.503Z,12.17
2023-04-12T12:09:00.703Z,15.60
2023-04-12T12:11:29.342Z,10.33
2023-04-12T12:13:58.267Z,10.20
2023-04-12T12:16:28.781Z,9.70
2023-04-12T12:18:58.714Z,18.47
2023-04-12T12:21:28.588Z,13.63
2023-04-12T12:23:58.687Z,15.27
2023-04-12T12:26:28.813Z,9.80
2023-04-12T12:29:00.256Z,12.00
2023-04-12T12:31:29.943Z,11.80
2023-04-12T12:34:01.107Z,11.97
2023-04-12T12:36:33.524Z,11.07
2023-04-12T12:39:09.392Z,14.00
2023-04-12T12:41:38.480Z,10.23
2023-04-12T12:44:08.077Z,8.10
2023-04-12T12:46:51.999Z,9.05
2023-04-12T12:49:25.492Z,13.47
2023-04-12T12:51:53.775Z,9.47
2023-04-12T12:54:32.215Z,9.90
2023-04-12T12:57:07.647Z,14.90
2023-04-12T12:59:35.925Z,10.60
2023-04-12T13:02:04.285Z,13.10
2023-04-12T13:04:34.720Z,9.80
2023-04-12T13:07:03.010Z,10.67
2023-04-12T13:09:33.371Z,11.10
2023-04-12T13:12:02.944Z,12.10
2023-04-12T13:14:31.346Z,11.23
2023-04-12T13:16:59.845Z,10.90
2023-04-12T13:19:28.351Z,13.77
2023-04-12T13:21:58.047Z,14.17
2023-04-12T13:24:26.913Z,15.57
2023-04-12T13:26:55.436Z,17.30
2023-04-12T13:29:23.739Z,12.70
2023-04-12T13:31:51.968Z,14.23
2023-04-12T13:34:20.266Z,13.00
2023-04-12T13:36:48.453Z,13.33
2023-04-12T13:39:17.988Z,10.93
2023-04-12T13:41:46.235Z,11.83
2023-04-12T13:44:14.589Z,13.40
2023-04-12T13:46:43.311Z,14.83
2023-04-12T13:49:11.915Z,16.80
2023-04-12T13:51:40.275Z,12.80
2023-04-12T13:54:08.645Z,13.67
2023-04-12T13:56:39.216Z,18.93
2023-04-12T13:59:07.972Z,13.47
2023-04-12T14:01:36.660Z,19.43
2023-04-12T14:04:05.458Z,26.20
2023-04-12T14:06:33.776Z,17.57
2023-04-12T14:09:02.570Z,15.03
2023-04-12T14:11:30.740Z,15.70
2023-04-12T14:14:00.394Z,15.70
2023-04-12T14:16:28.857Z,25.67
2023-04-12T14:18:57.520Z,13.27
2023-04-12T14:21:29.151Z,15.40
2023-04-12T14:23:57.907Z,23.23
2023-04-12T14:26:26.464Z,11.87
2023-04-12T14:28:54.736Z,14.47
2023-04-12T14:31:24.781Z,16.37
2023-04-12T14:33:53.393Z,15.73
2023-04-12T14:36:21.677Z,12.53
2023-04-12T14:38:51.198Z,14.80
2023-04-12T14:41:19.363Z,27.33
2023-04-12T14:43:47.691Z,12.40
2023-04-12T14:46:17.714Z,24.27
2023-04-12T14:48:47.321Z,19.73
2023-04-12T14:51:16.019Z,17.60
2023-04-12T14:53:44.170Z,19.60
2023-04-12T14:56:23.926Z,18.17
2023-04-12T14:58:54.294Z,18.23
2023-04-12T15:01:23.627Z,22.03
2023-04-12T15:03:54.043Z,20.03
2023-04-12T15:06:26.160Z,13.00
2023-04-12T15:08:55.353Z,11.13
2023-04-12T15:11:26.786Z,20.57
2023-04-12T15:13:56.462Z,19.63
2023-04-12T15:16:24.857Z,22.53
2023-04-12T15:18:54.425Z,21.97
2023-04-12T15:21:22.929Z,18.43
2023-04-12T15:23:51.345Z,14.87
2023-04-12T15:26:19.471Z,19.63
2023-04-12T15:28:47.885Z,15.53
2023-04-12T15:31:16.165Z,17.60
2023-04-12T15:33:46.689Z,23.17
2023-04-12T15:36:17.069Z,14.30
2023-04-12T15:38:45.608Z,18.93
2023-04-12T15:41:13.745Z,22.13
2023-04-12T15:43:45.477Z,13.83
2023-04-12T15:46:15.268Z,19.97
2023-04-12T15:48:43.880Z,16.23
2023-04-12T15:51:12.502Z,20.37
2023-04-12T15:53:43.509Z,27.07
2023-04-12T15:56:15.465Z,22.83
2023-04-12T15:58:44.723Z,22.63
2023-04-12T16:01:13.007Z,15.83
2023-04-12T16:03:42.911Z,18.07
2023-04-12T16:06:12.285Z,25.63
2023-04-12T16:08:42.013Z,19.03
2023-04-12T16:11:12.216Z,16.00
2023-04-12T16:13:42.593Z,15.40
2023-04-12T16:16:12.888Z,13.07
2023-04-12T16:18:42.470Z,17.67
2023-04-12T16:21:12.810Z,16.27
2023-04-12T16:23:43.067Z,15.37
2023-04-12T16:26:12.347Z,27.17
2023-04-12T16:28:42.937Z,22.77
2023-04-12T16:31:11.941Z,19.03
2023-04-12T16:33:40.862Z,16.73
2023-04-12T16:36:09.906Z,17.07
2023-04-12T16:38:38.376Z,21.00
2023-04-12T16:41:08.728Z,18.27
2023-04-12T16:43:36.834Z,22.20
2023-04-12T16:46:06.135Z,23.47
2023-04-12T16:48:35.539Z,16.97
2023-04-12T16:51:04.860Z,25.17
2023-04-12T16:53:33.591Z,14.83
2023-04-12T16:56:02.817Z,17.73
2023-04-12T16:58:33.045Z,17.70
2023-04-12T17:01:02.097Z,22.17
2023-04-12T17:03:30.508Z,15.27
2023-04-12T17:05:59.252Z,19.83
2023-04-12T17:08:27.723Z,21.67
2023-04-12T17:10:55.996Z,18.00
2023-04-12T17:13:24.590Z,16.80
2023-04-12T17:15:54.502Z,26.63
2023-04-12T17:18:22.710Z,19.90
2023-04-12T17:20:51.279Z,19.63
2023-04-12T17:23:19.730Z,23.23
2023-04-12T17:25:47.927Z,15.47
2023-04-12T17:28:16.382Z,19.77
2023-04-12T17:30:44.839Z,22.50
2023-04-12T17:33:17.884Z,23.07
2023-04-12T17:35:46.953Z,19.27
2023-04-12T17:38:15.169Z,17.33
2023-04-12T17:40:43.434Z,15.20
2023-04-12T17:43:12.076Z,22.77
2023-04-12T17:45:40.437Z,16.43
2023-04-12T17:48:11.072Z,17.77
2023-04-12T17:50:42.093Z,30.63
2023-04-12T17:53:10.267Z,37.57
2023-04-12T17:55:38.811Z,24.60
2023-04-12T17:58:07.558Z,26.97
2023-04-12T18:00:35.952Z,23.53
2023-04-12T18:03:04.184Z,16.23
2023-04-12T18:05:33.204Z,15.97
2023-04-12T18:08:03.349Z,29.77
2023-04-12T18:10:31.599Z,18.03
2023-04-12T18:13:00.291Z,19.93
2023-04-12T18:15:28.947Z,23.10
2023-04-12T18:17:57.369Z,24.93
2023-04-12T18:20:26.057Z,21.73
2023-04-12T18:22:54.415Z,24.40
2023-04-12T18:25:24.126Z,18.53
2023-04-12T18:27:53.043Z,19.77
2023-04-12T18:30:21.603Z,21.77
2023-04-12T18:32:49.837Z,23.80
2023-04-12T18:35:18.654Z,24.47
2023-04-12T18:37:47.164Z,23.33
2023-04-12T18:40:16.045Z,23.57
2023-04-12T18:42:46.690Z,25.47
2023-04-12T18:45:16.005Z,22.13
2023-04-12T18:47:44.777Z,24.10
2023-04-12T18:50:14.132Z,21.83
2023-04-12T18:52:42.811Z,24.67
2023-04-12T18:55:11.597Z,27.40
2023-04-12T18:57:40.451Z,26.77
2023-04-12T19:00:14.549Z,29.83
2023-04-12T19:02:43.340Z,30.93
2023-04-12T19:05:12.326Z,33.50
2023-04-12T19:07:40.759Z,20.60
2023-04-12T19:10:10.205Z,20.60
2023-04-12T19:12:38.729Z,25.30
2023-04-12T19:15:10.579Z,24.83
2023-04-12T19:17:39.680Z,26.97
2023-04-12T19:20:09.410Z,19.97
2023-04-12T19:22:37.682Z,27.00
2023-04-12T19:25:07.304Z,30.97
2023-04-12T19:27:35.879Z,24.27
2023-04-12T19:30:04.505Z,21.33
2023-04-12T19:32:34.169Z,24.43
2023-04-12T19:35:02.436Z,24.20
2023-04-12T19:37:34.085Z,26.37
2023-04-12T19:40:02.774Z,19.23
2023-04-12T19:42:31.065Z,27.53
2023-04-12T19:45:00.636Z,21.23
2023-04-12T19:47:29.668Z,18.40
2023-04-12T19:49:59.543Z,19.23
2023-04-12T19:52:28.469Z,19.03
2023-04-12T19:54:57.458Z,24.73
2023-04-12T19:57:27.632Z,27.50
2023-04-12T19:59:56.085Z,31.93
2023-04-12T20:02:24.691Z,21.67
2023-04-12T20:04:53.447Z,23.67
2023-04-12T20:07:23.002Z,23.80
2023-04-12T20:09:51.857Z,16.10
2023-04-12T20:12:19.997Z,25.93
2023-04-12T20:14:48.225Z,20.73
2023-04-12T20:17:16.683Z,21.20
2023-04-12T20:19:44.817Z,30.50
2023-04-12T20:22:13.541Z,18.80
2023-04-12T20:24:43.164Z,28.20
2023-04-12T20:27:12.719Z,22.13
2023-04-12T20:29:41.964Z,23.67
2023-04-12T20:32:12.428Z,21.17
2023-04-12T20:34:42.069Z,19.80
2023-04-12T20:37:10.263Z,18.23
2023-04-12T20:39:39.732Z,33.90
2023-04-12T20:42:10.458Z,18.20
2023-04-12T20:44:39.028Z,17.43
2023-04-12T20:47:08.064Z,18.83
2023-04-12T20:49:36.491Z,15.83
2023-04-12T20:52:04.684Z,16.07
2023-04-12T20:54:34.048Z,24.50
2023-04-12T20:57:04.237Z,18.70
2023-04-12T20:59:35.957Z,16.93
2023-04-12T21:02:04.548Z,16.37
2023-04-12T21:04:36.296Z,20.83
2023-04-12T21:07:06.077Z,19.70
2023-04-12T21:09:34.315Z,17.50
2023-04-12T21:12:06.180Z,18.40
2023-04-12T21:14:37.730Z,16.30
2023-04-12T21:17:07.350Z,13.60
2023-04-12T21:19:39.764Z,25.20
2023-04-12T21:22:08.438Z,17.23
2023-04-12T21:24:38.374Z,16.40
2023-04-12T21:27:08.512Z,12.47
2023-04-12T21:29:41.329Z,13.17
2023-04-12T21:32:10.281Z,18.13
2023-04-12T21:34:39.228Z,15.33
2023-04-12T21:37:07.776Z,14.40
2023-04-12T21:39:36.183Z,19.40
2023-04-12T21:42:04.692Z,15.87
2023-04-12T21:44:32.984Z,15.27
2023-04-12T21:47:02.848Z,12.60
2023-04-12T21:49:31.616Z,13.17
2023-04-12T21:51:59.753Z,16.70
2023-04-12T21:54:29.293Z,11.83
2023-04-12T21:56:58.309Z,17.77
2023-04-12T21:59:26.855Z,12.37
2023-04-12T22:01:55.265Z,15.63
2023-04-12T22:04:24.856Z,11.50
2023-04-12T22:06:53.162Z,15.23
2023-04-12T22:09:21.534Z,12.40
2023-04-12T22:11:50.247Z,14.03
2023-04-12T22:14:18.487Z,12.90
2023-04-12T22:16:47.321Z,12.47
2023-04-12T22:19:16.401Z,11.27
2023-04-12T22:21:48.356Z,17.17
2023-04-12T22:24:17.781Z,11.53
2023-04-12T22:26:46.418Z,14.03
2023-04-12T22:29:17.787Z,15.47
2023-04-12T22:31:47.161Z,13.87
2023-04-12T22:34:15.357Z,13.57
2023-04-12T22:36:46.717Z,16.00
2023-04-12T22:39:15.794Z,11.87
2023-04-12T22:41:49.107Z,11.00
2023-04-12T22:44:22.167Z,14.50
2023-04-12T22:46:50.931Z,13.20
2023-04-12T22:49:19.963Z,13.23
2023-04-12T22:51:49.644Z,14.77
2023-04-12T22:54:18.176Z,12.83
2023-04-12T22:56:46.814Z,19.03
2023-04-12T22:59:16.835Z,16.30
2023-04-12T23:01:46.379Z,14.50
2023-04-12T23:04:15.795Z,13.87
2023-04-12T23:06:45.534Z,21.17
2023-04-12T23:09:16.123Z,16.03
2023-04-12T23:11:44.708Z,23.10
2023-04-12T23:14:12.960Z,17.73
2023-04-12T23:16:44.532Z,21.90
2023-04-12T23:19:13.116Z,18.27
2023-04-12T23:21:41.333Z,20.57
2023-04-12T23:24:11.736Z,17.33
2023-04-12T23:26:41.390Z,21.60
2023-04-12T23:29:09.727Z,18.73
2023-04-12T23:31:38.148Z,22.23
2023-04-12T23:34:06.486Z,17.73
2023-04-12T23:36:35.587Z,20.70
2023-04-12T23:39:09.269Z,17.57
2023-04-12T23:41:38.381Z,20.63
2023-04-12T23:44:08.100Z,16.37
2023-04-12T23:46:36.862Z,25.67
2023-04-12T23:49:05.073Z,24.83
2023-04-12T23:51:33.529Z,22.27
2023-04-12T23:54:02.198Z,17.40
2023-04-12T23:56:30.869Z,17.63
2023-04-12T23:58:59.058Z,18.23
